sensor_id;sensor_type;location;lat;lon;timestamp;temperature;humidity
22781;DHT22;11557;50.884;4.322;2023-07-09T00:02:21;25.60;99.90
22781;DHT22;11557;50.884;4.322;2023-07-09T00:04:47;25.60;99.90
22781;DHT22;11557;50.884;4.322;2023-07-09T00:07:26;25.70;99.90
22781;DHT22;11557;50.884;4.322;2023-07-09T00:09:53;25.60;99.90
22781;DHT22;11557;50.884;4.322;2023-07-09T00:12:19;25.70;99.90
22781;DHT22;11557;50.884;4.322;2023-07-09T00:14:45;25.60;99.90
22781;DHT22;11557;50.884;4.322;2023-07-09T00:17:18;25.70;99.90
22781;DHT22;11557;50.884;4.322;2023-07-09T00:19:45;25.60;99.90
22781;DHT22;11557;50.884;4.322;2023-07-09T00:22:15;25.60;99.90
22781;DHT22;11557;50.884;4.322;2023-07-09T00:24:44;25.60;99.90
22781;DHT22;11557;50.884;4.322;2023-07-09T00:27:14;25.50;99.90
22781;DHT22;11557;50.884;4.322;2023-07-09T00:29:42;25.50;99.90
22781;DHT22;11557;50.884;4.322;2023-07-09T00:32:18;25.40;99.90
22781;DHT22;11557;50.884;4.322;2023-07-09T00:34:49;25.30;99.90
22781;DHT22;11557;50.884;4.322;2023-07-09T00:37:19;25.40;99.90
22781;DHT22;11557;50.884;4.322;2023-07-09T00:39:46;25.30;99.90
22781;DHT22;11557;50.884;4.322;2023-07-09T00:42:14;25.30;99.90
22781;DHT22;11557;50.884;4.322;2023-07-09T00:44:46;25.30;99.90
22781;DHT22;11557;50.884;4.322;2023-07-09T00:47:24;25.20;99.90
22781;DHT22;11557;50.884;4.322;2023-07-09T00:52:49;25.30;99.90
22781;DHT22;11557;50.884;4.322;2023-07-09T00:55:18;25.30;99.90
22781;DHT22;11557;50.884;4.322;2023-07-09T00:57:46;25.30;99.90
22781;DHT22;11557;50.884;4.322;2023-07-09T01:00:22;25.20;99.90
22781;DHT22;11557;50.884;4.322;2023-07-09T01:02:49;25.30;99.90
22781;DHT22;11557;50.884;4.322;2023-07-09T01:05:17;25.30;99.90
22781;DHT22;11557;50.884;4.322;2023-07-09T01:07:44;25.30;99.90
22781;DHT22;11557;50.884;4.322;2023-07-09T01:10:12;25.30;99.90
22781;DHT22;11557;50.884;4.322;2023-07-09T01:12:39;25.20;99.90
22781;DHT22;11557;50.884;4.322;2023-07-09T01:15:05;25.20;99.90
22781;DHT22;11557;50.884;4.322;2023-07-09T01:17:33;25.20;99.90
22781;DHT22;11557;50.884;4.322;2023-07-09T01:19:59;25.30;99.90
22781;DHT22;11557;50.884;4.322;2023-07-09T01:22:25;25.30;99.90
22781;DHT22;11557;50.884;4.322;2023-07-09T01:27:28;25.20;99.90
22781;DHT22;11557;50.884;4.322;2023-07-09T01:29:54;25.10;99.90
22781;DHT22;11557;50.884;4.322;2023-07-09T01:32:21;25.10;99.90
22781;DHT22;11557;50.884;4.322;2023-07-09T01:34:49;25.10;99.90
22781;DHT22;11557;50.884;4.322;2023-07-09T01:37:22;25.00;99.90
22781;DHT22;11557;50.884;4.322;2023-07-09T01:39:49;25.00;99.90
22781;DHT22;11557;50.884;4.322;2023-07-09T01:42:19;25.00;99.90
22781;DHT22;11557;50.884;4.322;2023-07-09T01:44:48;24.90;99.90
22781;DHT22;11557;50.884;4.322;2023-07-09T01:47:15;25.00;99.90
22781;DHT22;11557;50.884;4.322;2023-07-09T01:49:43;24.90;99.90
22781;DHT22;11557;50.884;4.322;2023-07-09T01:52:12;24.90;99.90
22781;DHT22;11557;50.884;4.322;2023-07-09T01:54:38;24.90;99.90
22781;DHT22;11557;50.884;4.322;2023-07-09T01:57:21;24.90;99.90
22781;DHT22;11557;50.884;4.322;2023-07-09T01:59:52;24.80;99.90
22781;DHT22;11557;50.884;4.322;2023-07-09T02:02:23;24.80;99.90
22781;DHT22;11557;50.884;4.322;2023-07-09T02:04:53;24.90;99.90
22781;DHT22;11557;50.884;4.322;2023-07-09T02:07:20;24.80;99.90
22781;DHT22;11557;50.884;4.322;2023-07-09T02:09:47;24.80;99.90
22781;DHT22;11557;50.884;4.322;2023-07-09T02:12:14;24.70;99.90
22781;DHT22;11557;50.884;4.322;2023-07-09T02:14:41;24.70;99.90
22781;DHT22;11557;50.884;4.322;2023-07-09T02:17:08;24.80;99.90
22781;DHT22;11557;50.884;4.322;2023-07-09T02:19:34;24.80;99.90
22781;DHT22;11557;50.884;4.322;2023-07-09T02:21:59;24.70;99.90
22781;DHT22;11557;50.884;4.322;2023-07-09T02:24:25;24.80;99.90
22781;DHT22;11557;50.884;4.322;2023-07-09T02:26:56;24.80;99.90
22781;DHT22;11557;50.884;4.322;2023-07-09T02:29:23;24.70;99.90
22781;DHT22;11557;50.884;4.322;2023-07-09T02:31:50;24.70;99.90
22781;DHT22;11557;50.884;4.322;2023-07-09T02:34:16;24.70;99.90
22781;DHT22;11557;50.884;4.322;2023-07-09T02:36:42;24.70;99.90
22781;DHT22;11557;50.884;4.322;2023-07-09T02:39:12;24.70;99.90
22781;DHT22;11557;50.884;4.322;2023-07-09T02:41:39;24.70;99.90
22781;DHT22;11557;50.884;4.322;2023-07-09T02:44:05;24.70;99.90
22781;DHT22;11557;50.884;4.322;2023-07-09T02:46:32;24.70;99.90
22781;DHT22;11557;50.884;4.322;2023-07-09T02:48:57;24.70;99.90
22781;DHT22;11557;50.884;4.322;2023-07-09T02:51:24;24.60;99.90
22781;DHT22;11557;50.884;4.322;2023-07-09T02:53:55;24.60;99.90
22781;DHT22;11557;50.884;4.322;2023-07-09T02:56:21;24.60;99.90
22781;DHT22;11557;50.884;4.322;2023-07-09T02:58:47;24.60;99.90
22781;DHT22;11557;50.884;4.322;2023-07-09T03:01:12;24.60;99.90
22781;DHT22;11557;50.884;4.322;2023-07-09T03:03:38;24.60;99.90
22781;DHT22;11557;50.884;4.322;2023-07-09T03:06:05;24.60;99.90
22781;DHT22;11557;50.884;4.322;2023-07-09T03:08:31;24.50;99.90
22781;DHT22;11557;50.884;4.322;2023-07-09T03:10:57;24.50;99.90
22781;DHT22;11557;50.884;4.322;2023-07-09T03:13:23;24.50;99.90
22781;DHT22;11557;50.884;4.322;2023-07-09T03:15:58;24.40;99.90
22781;DHT22;11557;50.884;4.322;2023-07-09T03:18:24;24.40;99.90
22781;DHT22;11557;50.884;4.322;2023-07-09T03:20:50;24.40;99.90
22781;DHT22;11557;50.884;4.322;2023-07-09T03:23:16;24.40;99.90
22781;DHT22;11557;50.884;4.322;2023-07-09T03:25:44;24.30;99.90
22781;DHT22;11557;50.884;4.322;2023-07-09T03:28:11;24.30;99.90
22781;DHT22;11557;50.884;4.322;2023-07-09T03:30:47;24.30;99.90
22781;DHT22;11557;50.884;4.322;2023-07-09T03:33:14;24.30;99.90
22781;DHT22;11557;50.884;4.322;2023-07-09T03:35:40;24.30;99.90
22781;DHT22;11557;50.884;4.322;2023-07-09T03:38:07;24.30;99.90
22781;DHT22;11557;50.884;4.322;2023-07-09T03:40:33;24.30;99.90
22781;DHT22;11557;50.884;4.322;2023-07-09T03:42:59;24.30;99.90
22781;DHT22;11557;50.884;4.322;2023-07-09T03:45:25;24.30;99.90
22781;DHT22;11557;50.884;4.322;2023-07-09T03:47:51;24.30;99.90
22781;DHT22;11557;50.884;4.322;2023-07-09T03:50:17;24.30;99.90
22781;DHT22;11557;50.884;4.322;2023-07-09T03:52:43;24.30;99.90
22781;DHT22;11557;50.884;4.322;2023-07-09T03:55:09;24.90;99.90
22781;DHT22;11557;50.884;4.322;2023-07-09T03:57:35;24.40;99.90
22781;DHT22;11557;50.884;4.322;2023-07-09T04:00:03;24.20;99.90
22781;DHT22;11557;50.884;4.322;2023-07-09T04:02:29;24.00;99.90
22781;DHT22;11557;50.884;4.322;2023-07-09T04:04:55;24.00;99.90
22781;DHT22;11557;50.884;4.322;2023-07-09T04:07:20;24.20;99.90
22781;DHT22;11557;50.884;4.322;2023-07-09T04:09:46;24.30;99.90
22781;DHT22;11557;50.884;4.322;2023-07-09T04:12:12;24.20;99.90
22781;DHT22;11557;50.884;4.322;2023-07-09T04:14:37;24.20;99.90
22781;DHT22;11557;50.884;4.322;2023-07-09T04:17:03;24.30;99.90
22781;DHT22;11557;50.884;4.322;2023-07-09T04:19:29;24.40;99.90
22781;DHT22;11557;50.884;4.322;2023-07-09T04:21:54;24.40;99.90
22781;DHT22;11557;50.884;4.322;2023-07-09T04:24:20;24.40;99.90
22781;DHT22;11557;50.884;4.322;2023-07-09T04:26:46;24.40;99.90
22781;DHT22;11557;50.884;4.322;2023-07-09T04:29:13;24.40;99.90
22781;DHT22;11557;50.884;4.322;2023-07-09T04:31:40;24.40;99.90
22781;DHT22;11557;50.884;4.322;2023-07-09T04:34:06;24.50;99.90
22781;DHT22;11557;50.884;4.322;2023-07-09T04:36:31;24.50;99.90
22781;DHT22;11557;50.884;4.322;2023-07-09T04:38:57;24.50;99.90
22781;DHT22;11557;50.884;4.322;2023-07-09T04:41:23;24.60;99.90
22781;DHT22;11557;50.884;4.322;2023-07-09T04:43:49;24.50;99.90
22781;DHT22;11557;50.884;4.322;2023-07-09T04:46:15;24.60;99.90
22781;DHT22;11557;50.884;4.322;2023-07-09T04:48:40;24.60;99.90
22781;DHT22;11557;50.884;4.322;2023-07-09T04:51:06;24.50;99.90
22781;DHT22;11557;50.884;4.322;2023-07-09T04:53:32;24.60;99.90
22781;DHT22;11557;50.884;4.322;2023-07-09T04:55:57;24.50;99.90
22781;DHT22;11557;50.884;4.322;2023-07-09T04:58:23;24.60;99.90
22781;DHT22;11557;50.884;4.322;2023-07-09T05:00:49;24.60;99.90
22781;DHT22;11557;50.884;4.322;2023-07-09T05:03:18;24.70;99.90
22781;DHT22;11557;50.884;4.322;2023-07-09T05:05:46;24.70;99.90
22781;DHT22;11557;50.884;4.322;2023-07-09T05:08:13;24.80;99.90
22781;DHT22;11557;50.884;4.322;2023-07-09T05:10:43;24.80;99.90
22781;DHT22;11557;50.884;4.322;2023-07-09T05:13:09;24.90;99.90
22781;DHT22;11557;50.884;4.322;2023-07-09T05:15:35;24.90;99.90
22781;DHT22;11557;50.884;4.322;2023-07-09T05:18:00;25.00;99.90
22781;DHT22;11557;50.884;4.322;2023-07-09T05:20:26;25.00;99.90
22781;DHT22;11557;50.884;4.322;2023-07-09T05:22:52;24.90;99.90
22781;DHT22;11557;50.884;4.322;2023-07-09T05:25:18;24.90;99.90
22781;DHT22;11557;50.884;4.322;2023-07-09T05:27:43;24.80;99.90
22781;DHT22;11557;50.884;4.322;2023-07-09T05:30:09;24.70;99.90
22781;DHT22;11557;50.884;4.322;2023-07-09T05:32:37;24.80;99.90
22781;DHT22;11557;50.884;4.322;2023-07-09T05:35:02;24.90;99.90
22781;DHT22;11557;50.884;4.322;2023-07-09T05:37:29;25.10;99.90
22781;DHT22;11557;50.884;4.322;2023-07-09T05:39:54;25.00;99.90
22781;DHT22;11557;50.884;4.322;2023-07-09T05:42:20;25.00;99.90
22781;DHT22;11557;50.884;4.322;2023-07-09T05:44:46;24.80;99.90
22781;DHT22;11557;50.884;4.322;2023-07-09T05:47:11;24.80;99.90
22781;DHT22;11557;50.884;4.322;2023-07-09T05:49:39;24.80;99.90
22781;DHT22;11557;50.884;4.322;2023-07-09T05:52:04;24.80;99.90
22781;DHT22;11557;50.884;4.322;2023-07-09T05:54:31;24.70;99.90
22781;DHT22;11557;50.884;4.322;2023-07-09T05:56:56;24.70;99.90
22781;DHT22;11557;50.884;4.322;2023-07-09T05:59:22;24.50;99.90
22781;DHT22;11557;50.884;4.322;2023-07-09T06:01:48;24.20;99.90
22781;DHT22;11557;50.884;4.322;2023-07-09T06:04:13;24.10;99.90
22781;DHT22;11557;50.884;4.322;2023-07-09T06:06:41;24.20;99.90
22781;DHT22;11557;50.884;4.322;2023-07-09T06:09:07;24.30;99.90
22781;DHT22;11557;50.884;4.322;2023-07-09T06:11:34;24.30;99.90
22781;DHT22;11557;50.884;4.322;2023-07-09T06:14:00;24.20;99.90
22781;DHT22;11557;50.884;4.322;2023-07-09T06:16:27;24.30;99.90
22781;DHT22;11557;50.884;4.322;2023-07-09T06:18:52;24.30;99.90
22781;DHT22;11557;50.884;4.322;2023-07-09T06:21:18;24.40;99.90
22781;DHT22;11557;50.884;4.322;2023-07-09T06:23:46;24.10;99.90
22781;DHT22;11557;50.884;4.322;2023-07-09T06:26:12;24.10;99.90
22781;DHT22;11557;50.884;4.322;2023-07-09T06:28:38;24.30;99.90
22781;DHT22;11557;50.884;4.322;2023-07-09T06:31:04;24.50;99.90
22781;DHT22;11557;50.884;4.322;2023-07-09T06:33:30;24.60;99.90
22781;DHT22;11557;50.884;4.322;2023-07-09T06:36:00;24.80;99.90
22781;DHT22;11557;50.884;4.322;2023-07-09T06:38:27;24.80;99.90
22781;DHT22;11557;50.884;4.322;2023-07-09T06:40:53;24.70;99.90
22781;DHT22;11557;50.884;4.322;2023-07-09T06:43:19;25.00;99.90
22781;DHT22;11557;50.884;4.322;2023-07-09T06:45:49;25.00;99.90
22781;DHT22;11557;50.884;4.322;2023-07-09T06:48:15;25.20;99.90
22781;DHT22;11557;50.884;4.322;2023-07-09T06:50:41;26.90;99.90
22781;DHT22;11557;50.884;4.322;2023-07-09T06:53:07;28.40;99.90
22781;DHT22;11557;50.884;4.322;2023-07-09T06:55:33;30.00;99.90
22781;DHT22;11557;50.884;4.322;2023-07-09T06:57:59;31.40;99.90
22781;DHT22;11557;50.884;4.322;2023-07-09T07:00:24;32.50;99.90
22781;DHT22;11557;50.884;4.322;2023-07-09T07:02:50;34.00;99.90
22781;DHT22;11557;50.884;4.322;2023-07-09T07:05:16;35.60;99.90
22781;DHT22;11557;50.884;4.322;2023-07-09T07:07:43;35.90;99.90
22781;DHT22;11557;50.884;4.322;2023-07-09T07:10:10;36.80;99.90
22781;DHT22;11557;50.884;4.322;2023-07-09T07:12:47;37.00;99.90
22781;DHT22;11557;50.884;4.322;2023-07-09T07:15:15;38.00;99.90
22781;DHT22;11557;50.884;4.322;2023-07-09T07:17:41;37.10;99.90
22781;DHT22;11557;50.884;4.322;2023-07-09T07:20:08;36.00;99.90
22781;DHT22;11557;50.884;4.322;2023-07-09T07:22:35;37.20;99.90
22781;DHT22;11557;50.884;4.322;2023-07-09T07:25:01;37.90;99.90
22781;DHT22;11557;50.884;4.322;2023-07-09T07:27:26;39.00;99.90
22781;DHT22;11557;50.884;4.322;2023-07-09T07:29:52;37.20;99.90
22781;DHT22;11557;50.884;4.322;2023-07-09T07:32:19;37.00;99.90
22781;DHT22;11557;50.884;4.322;2023-07-09T07:34:46;36.60;99.90
22781;DHT22;11557;50.884;4.322;2023-07-09T07:37:12;36.70;99.90
22781;DHT22;11557;50.884;4.322;2023-07-09T07:39:38;37.10;99.90
22781;DHT22;11557;50.884;4.322;2023-07-09T07:42:04;35.60;99.90
22781;DHT22;11557;50.884;4.322;2023-07-09T07:44:30;36.30;99.90
22781;DHT22;11557;50.884;4.322;2023-07-09T07:46:55;36.10;99.90
22781;DHT22;11557;50.884;4.322;2023-07-09T07:49:21;36.10;99.90
22781;DHT22;11557;50.884;4.322;2023-07-09T07:51:46;37.00;99.90
22781;DHT22;11557;50.884;4.322;2023-07-09T07:54:13;36.40;99.90
22781;DHT22;11557;50.884;4.322;2023-07-09T07:56:40;36.70;99.90
22781;DHT22;11557;50.884;4.322;2023-07-09T07:59:05;36.30;99.90
22781;DHT22;11557;50.884;4.322;2023-07-09T08:01:31;36.70;99.90
22781;DHT22;11557;50.884;4.322;2023-07-09T08:03:57;36.30;99.90
22781;DHT22;11557;50.884;4.322;2023-07-09T08:06:23;36.10;99.90
22781;DHT22;11557;50.884;4.322;2023-07-09T08:08:48;36.30;99.90
22781;DHT22;11557;50.884;4.322;2023-07-09T08:11:15;37.40;99.90
22781;DHT22;11557;50.884;4.322;2023-07-09T08:13:40;38.00;99.90
22781;DHT22;11557;50.884;4.322;2023-07-09T08:16:07;38.10;99.90
22781;DHT22;11557;50.884;4.322;2023-07-09T08:18:33;37.20;99.90
22781;DHT22;11557;50.884;4.322;2023-07-09T08:21:00;38.10;99.90
22781;DHT22;11557;50.884;4.322;2023-07-09T08:23:25;37.50;99.90
22781;DHT22;11557;50.884;4.322;2023-07-09T08:25:56;38.40;99.90
22781;DHT22;11557;50.884;4.322;2023-07-09T08:28:22;38.50;99.90
22781;DHT22;11557;50.884;4.322;2023-07-09T08:30:48;38.50;99.90
22781;DHT22;11557;50.884;4.322;2023-07-09T08:33:13;38.40;99.90
22781;DHT22;11557;50.884;4.322;2023-07-09T08:35:42;38.50;99.90
22781;DHT22;11557;50.884;4.322;2023-07-09T08:38:08;38.20;99.70
22781;DHT22;11557;50.884;4.322;2023-07-09T08:40:41;37.50;99.90
22781;DHT22;11557;50.884;4.322;2023-07-09T08:49:06;38.80;99.90
22781;DHT22;11557;50.884;4.322;2023-07-09T08:51:41;38.40;99.90
22781;DHT22;11557;50.884;4.322;2023-07-09T08:54:17;38.70;99.90
22781;DHT22;11557;50.884;4.322;2023-07-09T08:56:46;37.80;99.90
22781;DHT22;11557;50.884;4.322;2023-07-09T08:59:15;38.20;99.90
22781;DHT22;11557;50.884;4.322;2023-07-09T09:01:50;38.90;99.90
22781;DHT22;11557;50.884;4.322;2023-07-09T09:04:27;39.40;99.70
22781;DHT22;11557;50.884;4.322;2023-07-09T09:09:45;39.30;98.10
22781;DHT22;11557;50.884;4.322;2023-07-09T09:12:17;39.10;99.30
22781;DHT22;11557;50.884;4.322;2023-07-09T09:14:52;38.30;99.90
22781;DHT22;11557;50.884;4.322;2023-07-09T09:17:20;37.90;99.90
22781;DHT22;11557;50.884;4.322;2023-07-09T09:19:54;37.40;99.90
22781;DHT22;11557;50.884;4.322;2023-07-09T09:22:50;37.40;99.90
22781;DHT22;11557;50.884;4.322;2023-07-09T09:25:29;37.70;99.90
22781;DHT22;11557;50.884;4.322;2023-07-09T09:27:56;37.60;99.90
22781;DHT22;11557;50.884;4.322;2023-07-09T09:30:23;37.60;99.90
22781;DHT22;11557;50.884;4.322;2023-07-09T09:33:10;37.60;99.90
22781;DHT22;11557;50.884;4.322;2023-07-09T09:35:39;36.60;99.90
22781;DHT22;11557;50.884;4.322;2023-07-09T09:38:13;36.70;99.90
22781;DHT22;11557;50.884;4.322;2023-07-09T09:40:39;36.20;99.90
22781;DHT22;11557;50.884;4.322;2023-07-09T09:43:19;36.00;99.90
22781;DHT22;11557;50.884;4.322;2023-07-09T09:45:48;35.20;99.90
22781;DHT22;11557;50.884;4.322;2023-07-09T09:48:20;35.20;99.90
22781;DHT22;11557;50.884;4.322;2023-07-09T09:50:47;35.10;99.90
22781;DHT22;11557;50.884;4.322;2023-07-09T09:53:20;34.10;99.90
22781;DHT22;11557;50.884;4.322;2023-07-09T09:55:47;33.30;99.90
22781;DHT22;11557;50.884;4.322;2023-07-09T09:58:15;33.80;99.90
22781;DHT22;11557;50.884;4.322;2023-07-09T10:00:50;33.60;99.90
22781;DHT22;11557;50.884;4.322;2023-07-09T10:03:17;33.30;99.90
22781;DHT22;11557;50.884;4.322;2023-07-09T10:05:51;33.20;99.90
22781;DHT22;11557;50.884;4.322;2023-07-09T10:08:31;32.90;99.90
22781;DHT22;11557;50.884;4.322;2023-07-09T10:11:10;32.60;99.90
22781;DHT22;11557;50.884;4.322;2023-07-09T10:13:41;32.60;99.90
22781;DHT22;11557;50.884;4.322;2023-07-09T10:20:15;32.40;99.90
22781;DHT22;11557;50.884;4.322;2023-07-09T10:22:40;32.40;99.90
22781;DHT22;11557;50.884;4.322;2023-07-09T10:31:27;31.50;99.90
22781;DHT22;11557;50.884;4.322;2023-07-09T10:34:17;31.20;99.90
22781;DHT22;11557;50.884;4.322;2023-07-09T10:36:48;31.10;99.90
22781;DHT22;11557;50.884;4.322;2023-07-09T10:39:27;31.00;99.90
22781;DHT22;11557;50.884;4.322;2023-07-09T10:41:57;30.50;99.90
22781;DHT22;11557;50.884;4.322;2023-07-09T10:44:41;30.20;99.90
22781;DHT22;11557;50.884;4.322;2023-07-09T10:47:25;30.10;99.90
22781;DHT22;11557;50.884;4.322;2023-07-09T10:49:53;30.20;99.90
22781;DHT22;11557;50.884;4.322;2023-07-09T10:57:23;29.20;99.90
22781;DHT22;11557;50.884;4.322;2023-07-09T10:59:51;29.10;99.90
22781;DHT22;11557;50.884;4.322;2023-07-09T11:02:31;29.20;99.90
22781;DHT22;11557;50.884;4.322;2023-07-09T11:04:59;29.60;99.90
22781;DHT22;11557;50.884;4.322;2023-07-09T11:07:35;29.80;99.90
22781;DHT22;11557;50.884;4.322;2023-07-09T11:10:06;29.90;99.90
22781;DHT22;11557;50.884;4.322;2023-07-09T11:12:39;29.60;99.90
22781;DHT22;11557;50.884;4.322;2023-07-09T11:15:20;29.50;99.90
22781;DHT22;11557;50.884;4.322;2023-07-09T11:17:48;29.20;99.90
22781;DHT22;11557;50.884;4.322;2023-07-09T11:20:26;29.30;99.90
22781;DHT22;11557;50.884;4.322;2023-07-09T11:23:07;29.20;99.90
22781;DHT22;11557;50.884;4.322;2023-07-09T11:25:45;29.00;99.90
22781;DHT22;11557;50.884;4.322;2023-07-09T11:28:11;28.70;99.90
22781;DHT22;11557;50.884;4.322;2023-07-09T11:30:52;28.80;99.90
22781;DHT22;11557;50.884;4.322;2023-07-09T11:33:28;28.70;99.90
22781;DHT22;11557;50.884;4.322;2023-07-09T11:36:11;28.50;99.90
22781;DHT22;11557;50.884;4.322;2023-07-09T11:38:42;28.40;99.90
22781;DHT22;11557;50.884;4.322;2023-07-09T11:44:19;28.30;99.90
22781;DHT22;11557;50.884;4.322;2023-07-09T11:52:12;28.00;99.90
22781;DHT22;11557;50.884;4.322;2023-07-09T11:54:38;27.80;99.90
22781;DHT22;11557;50.884;4.322;2023-07-09T11:57:10;27.80;99.90
22781;DHT22;11557;50.884;4.322;2023-07-09T11:59:41;27.60;99.90
22781;DHT22;11557;50.884;4.322;2023-07-09T12:02:15;27.80;99.90
22781;DHT22;11557;50.884;4.322;2023-07-09T12:04:41;27.80;99.90
22781;DHT22;11557;50.884;4.322;2023-07-09T12:07:12;27.50;99.90
22781;DHT22;11557;50.884;4.322;2023-07-09T12:09:43;27.60;99.90
22781;DHT22;11557;50.884;4.322;2023-07-09T12:12:25;27.50;99.90
22781;DHT22;11557;50.884;4.322;2023-07-09T12:14:51;27.20;99.90
22781;DHT22;11557;50.884;4.322;2023-07-09T12:17:18;27.10;99.90
22781;DHT22;11557;50.884;4.322;2023-07-09T12:19:51;27.10;99.90
22781;DHT22;11557;50.884;4.322;2023-07-09T12:22:20;27.30;99.90
22781;DHT22;11557;50.884;4.322;2023-07-09T12:24:48;27.20;99.90
22781;DHT22;11557;50.884;4.322;2023-07-09T12:27:26;27.10;99.90
22781;DHT22;11557;50.884;4.322;2023-07-09T12:29:57;26.90;99.90
22781;DHT22;11557;50.884;4.322;2023-07-09T12:32:23;26.80;99.90
22781;DHT22;11557;50.884;4.322;2023-07-09T12:34:53;26.70;99.90
22781;DHT22;11557;50.884;4.322;2023-07-09T12:37:21;26.40;99.90
22781;DHT22;11557;50.884;4.322;2023-07-09T12:39:51;25.90;99.90
22781;DHT22;11557;50.884;4.322;2023-07-09T12:42:33;25.80;99.90
22781;DHT22;11557;50.884;4.322;2023-07-09T12:44:59;25.80;99.90
22781;DHT22;11557;50.884;4.322;2023-07-09T12:47:25;25.80;99.90
22781;DHT22;11557;50.884;4.322;2023-07-09T12:50:09;25.80;99.90
22781;DHT22;11557;50.884;4.322;2023-07-09T12:52:46;25.70;99.90
22781;DHT22;11557;50.884;4.322;2023-07-09T12:55:20;25.80;99.90
22781;DHT22;11557;50.884;4.322;2023-07-09T12:57:46;25.60;99.90
22781;DHT22;11557;50.884;4.322;2023-07-09T13:00:17;25.60;99.90
22781;DHT22;11557;50.884;4.322;2023-07-09T13:02:45;25.70;99.90
22781;DHT22;11557;50.884;4.322;2023-07-09T13:05:20;25.60;99.90
22781;DHT22;11557;50.884;4.322;2023-07-09T13:08:39;25.80;99.90
22781;DHT22;11557;50.884;4.322;2023-07-09T13:10:41;25.90;99.90
22781;DHT22;11557;50.884;4.322;2023-07-09T13:13:12;25.90;99.90
22781;DHT22;11557;50.884;4.322;2023-07-09T13:15:41;25.90;99.90
22781;DHT22;11557;50.884;4.322;2023-07-09T13:18:11;25.80;99.90
22781;DHT22;11557;50.884;4.322;2023-07-09T13:20:43;25.70;99.90
22781;DHT22;11557;50.884;4.322;2023-07-09T13:25:40;25.90;99.90
22781;DHT22;11557;50.884;4.322;2023-07-09T13:28:24;26.00;99.90
22781;DHT22;11557;50.884;4.322;2023-07-09T13:30:59;26.20;99.90
22781;DHT22;11557;50.884;4.322;2023-07-09T13:33:25;26.20;99.90
22781;DHT22;11557;50.884;4.322;2023-07-09T13:35:51;26.40;99.90
22781;DHT22;11557;50.884;4.322;2023-07-09T13:38:20;26.50;99.90
22781;DHT22;11557;50.884;4.322;2023-07-09T13:40:49;26.70;99.90
22781;DHT22;11557;50.884;4.322;2023-07-09T13:43:18;26.70;99.90
22781;DHT22;11557;50.884;4.322;2023-07-09T13:45:45;26.80;99.90
22781;DHT22;11557;50.884;4.322;2023-07-09T13:48:20;26.90;99.90
22781;DHT22;11557;50.884;4.322;2023-07-09T13:50:49;27.10;99.90
22781;DHT22;11557;50.884;4.322;2023-07-09T13:53:21;27.10;99.90
22781;DHT22;11557;50.884;4.322;2023-07-09T13:55:47;27.10;99.90
22781;DHT22;11557;50.884;4.322;2023-07-09T13:58:17;27.30;99.90
22781;DHT22;11557;50.884;4.322;2023-07-09T14:00:44;27.10;99.90
22781;DHT22;11557;50.884;4.322;2023-07-09T14:03:25;27.20;99.90
22781;DHT22;11557;50.884;4.322;2023-07-09T14:05:51;27.50;99.90
22781;DHT22;11557;50.884;4.322;2023-07-09T14:08:17;27.70;99.90
22781;DHT22;11557;50.884;4.322;2023-07-09T14:10:44;28.00;99.90
22781;DHT22;11557;50.884;4.322;2023-07-09T14:13:20;28.30;99.90
22781;DHT22;11557;50.884;4.322;2023-07-09T14:15:46;28.40;99.90
22781;DHT22;11557;50.884;4.322;2023-07-09T14:18:15;28.70;99.90
22781;DHT22;11557;50.884;4.322;2023-07-09T14:20:42;29.00;99.90
22781;DHT22;11557;50.884;4.322;2023-07-09T14:23:13;29.10;99.90
22781;DHT22;11557;50.884;4.322;2023-07-09T14:25:40;28.90;99.90
22781;DHT22;11557;50.884;4.322;2023-07-09T14:28:11;28.90;99.90
22781;DHT22;11557;50.884;4.322;2023-07-09T14:30:37;29.20;99.90
22781;DHT22;11557;50.884;4.322;2023-07-09T14:33:07;29.30;99.90
22781;DHT22;11557;50.884;4.322;2023-07-09T14:35:33;29.50;99.90
22781;DHT22;11557;50.884;4.322;2023-07-09T14:38:01;29.40;99.90
22781;DHT22;11557;50.884;4.322;2023-07-09T14:40:27;29.30;99.90
22781;DHT22;11557;50.884;4.322;2023-07-09T14:42:54;29.10;99.90
22781;DHT22;11557;50.884;4.322;2023-07-09T14:45:22;29.20;99.90
22781;DHT22;11557;50.884;4.322;2023-07-09T14:47:50;29.50;99.90
22781;DHT22;11557;50.884;4.322;2023-07-09T14:50:16;29.60;99.90
22781;DHT22;11557;50.884;4.322;2023-07-09T14:52:43;29.50;99.90
22781;DHT22;11557;50.884;4.322;2023-07-09T14:55:29;29.30;99.90
22781;DHT22;11557;50.884;4.322;2023-07-09T14:57:55;29.30;99.90
22781;DHT22;11557;50.884;4.322;2023-07-09T15:00:25;29.20;99.90
22781;DHT22;11557;50.884;4.322;2023-07-09T15:02:52;28.90;99.90
22781;DHT22;11557;50.884;4.322;2023-07-09T15:05:22;28.60;99.90
22781;DHT22;11557;50.884;4.322;2023-07-09T15:07:48;28.70;99.90
22781;DHT22;11557;50.884;4.322;2023-07-09T15:10:17;28.60;99.90
22781;DHT22;11557;50.884;4.322;2023-07-09T15:12:44;28.90;99.90
22781;DHT22;11557;50.884;4.322;2023-07-09T15:17:42;29.30;99.90
22781;DHT22;11557;50.884;4.322;2023-07-09T15:20:15;29.40;99.90
22781;DHT22;11557;50.884;4.322;2023-07-09T15:22:42;29.50;99.90
22781;DHT22;11557;50.884;4.322;2023-07-09T15:25:18;29.30;99.90
22781;DHT22;11557;50.884;4.322;2023-07-09T15:27:44;29.30;99.90
22781;DHT22;11557;50.884;4.322;2023-07-09T15:30:19;29.40;99.90
22781;DHT22;11557;50.884;4.322;2023-07-09T15:32:47;29.00;99.90
22781;DHT22;11557;50.884;4.322;2023-07-09T15:35:17;29.00;99.90
22781;DHT22;11557;50.884;4.322;2023-07-09T15:37:44;28.10;99.90
22781;DHT22;11557;50.884;4.322;2023-07-09T15:40:29;28.80;99.90
22781;DHT22;11557;50.884;4.322;2023-07-09T15:43:03;28.80;99.90
22781;DHT22;11557;50.884;4.322;2023-07-09T15:45:29;28.60;99.90
22781;DHT22;11557;50.884;4.322;2023-07-09T15:47:55;28.70;99.90
22781;DHT22;11557;50.884;4.322;2023-07-09T15:50:26;28.30;99.90
22781;DHT22;11557;50.884;4.322;2023-07-09T15:52:53;28.50;99.90
22781;DHT22;11557;50.884;4.322;2023-07-09T15:55:25;28.50;99.90
22781;DHT22;11557;50.884;4.322;2023-07-09T15:57:52;28.40;99.90
22781;DHT22;11557;50.884;4.322;2023-07-09T16:00:24;28.50;99.90
22781;DHT22;11557;50.884;4.322;2023-07-09T16:02:51;28.00;99.90
22781;DHT22;11557;50.884;4.322;2023-07-09T16:05:26;28.00;99.90
22781;DHT22;11557;50.884;4.322;2023-07-09T16:07:54;27.90;99.90
22781;DHT22;11557;50.884;4.322;2023-07-09T16:10:21;27.80;99.90
22781;DHT22;11557;50.884;4.322;2023-07-09T16:12:48;27.70;99.90
22781;DHT22;11557;50.884;4.322;2023-07-09T16:15:17;27.40;99.90
22781;DHT22;11557;50.884;4.322;2023-07-09T16:17:44;27.20;99.90
22781;DHT22;11557;50.884;4.322;2023-07-09T16:20:11;27.20;99.90
22781;DHT22;11557;50.884;4.322;2023-07-09T16:22:38;27.30;99.90
22781;DHT22;11557;50.884;4.322;2023-07-09T16:25:32;27.10;99.90